Palmas, Brazil
Current Conditions -  °F | °C
As of 11:00 AM on Saturday 25 Oct 2014 (Local Time) from SBPJ Reporting Station
Scattered Clouds Scattered Clouds  
Wind Chill: 88°   Ceiling: Unl
Heat Index: 93°   Visibility: 6mi
Dew Point: 70°   Wind: 9mph
Humidity: 55%   Direction: 210°SSW
Pressure: 29.88"   Gusts: NA
Location:  10.21°S, 48.36°W
Report Text: SBPJ 251400Z 21008KT 9999 FEW025 SCT100 31/21 Q1012
Loading
Personal Weather Stations






























Interactive Weather Map New forecast layout! Learn more

10-Day Weather Forecast

Advertisements
Track Severe Weather on mobile